Station: Coonamble  

  Atmospheric Gas Attenuation - ITU Rec 676-11   ----------------- dB/100km -----------------
Date Time Temp RH % AH g/m3 Dew Point Wind Direction Speed kph Gust kph Barometer mB Rainfall Since 9am 24GHz 47GHz 76GHz 122GHz 134GHz 241GHz
08/05 12:30 16.9 43 6.18 4.3 22 33 1023.9 0 14.3 21.8 29.8 77.6 65.9 224.8
08/05 12:20 16.4 42 5.86 3.5 22 28 1024.2 0 13.7 21.5 28.9 75.1 62.6 213.1
08/05 12:10 15.9 42 5.69 3 24 32 1024.4 0 13.3 21.3 28.4 74.0 61.0 207.5
08/05 12:00 16.7 43 6.11 4.1 24 35 1024.5 0 14.2 21.7 29.6 77.2 65.3 222.6
08/05 11:50 16 44 5.99 3.8 32 37 1024.6 0 14.0 21.7 29.5 76.7 64.4 219.6
08/05 11:40 15.6 45 5.98 3.7 24 28 1024.7 0 13.9 21.8 29.6 77.0 64.7 220.3
08/05 11:30 15.9 45 6.09 4 22 32 1024.9 0 14.2 21.9 29.9 77.8 65.7 224.0
08/05 11:20 15.3 46 6.01 3.8 19 20 1024.9 0 14.0 21.9 29.8 77.6 65.3 222.4
08/05 11:10 14.9 47 5.99 3.7 20 24 1025 0 14.0 22.0 29.9 77.8 65.4 222.7
08/05 11:00 14.7 47 5.92 3.5 24 32 1025.1 0 13.9 22.0 29.7 77.3 64.7 220.3
08/05 10:50 14.4 48 5.93 3.5 24 30 1025.1 0 13.9 22.1 29.9 77.7 65.1 221.5
08/05 10:40 14.5 48 5.97 3.6 24 26 1025.2 0 14.0 22.1 30.0 78.0 65.5 223.0
08/05 10:30 14.1 48 5.83 3.3 20 30 1025.2 0 13.7 22.0 29.6 77.0 64.1 218.2
08/05 10:20 13.3 49 5.66 2.8 19 22 1025.3 0 13.4 21.9 29.3 76.2 62.7 213.2
08/05 10:10 13.5 50 5.85 3.3 24 28 1025.5 0 13.8 22.2 29.9 77.8 64.9 220.7
08/05 10:00 13.1 51 5.82 3.2 22 30 1025.6 0 13.7 22.2 29.9 77.9 64.8 220.5
08/05 09:50 12.9 52 5.86 3.3 19 22 1025.6 0 13.8 22.3 30.2 78.5 65.5 222.8
08/05 09:40 13 54 6.12 3.9 19 22 1025.6 0 14.3 22.7 31.1 81.0 68.6 233.6
08/05 09:30 12.3 52 5.65 2.7 19 24 1025.7 0 13.4 22.2 29.6 77.0 63.4 215.5
08/05 09:20 12.1 55 5.9 3.3 19 20 1025.7 0 13.9 22.6 30.6 79.7 66.6 226.8
08/05 09:10 11.3 55 5.61 2.6 22 26 1025.7 0 13.3 22.3 29.8 77.6 63.7 216.5
08/05 09:00 10.8 56 5.54 2.4 17 24 1025.7 0 13.2 22.4 29.8 77.4 63.3 214.8
08/05 08:50 10.3 57 5.46 2.2 19 20 1025.7 0 13.0 22.4 29.6 77.1 62.7 212.6
08/05 08:40 9.7 60 5.53 2.3 13 15 1025.7 0 13.2 22.6 30.1 78.4 64.0 217.3
08/05 08:30 8.9 61 5.35 1.8 17 24 1025.7 0 12.9 22.5 29.7 77.3 62.4 211.5
08/05 08:20 8.6 62 5.33 1.7 17 19 1025.7 0 12.8 22.6 29.8 77.4 62.4 211.4
08/05 08:10 7.9 64 5.26 1.5 17 19 1025.6 0 12.7 22.7 29.8 77.4 62.1 210.2
08/05 08:00 7.3 66 5.22 1.4 13 17 1025.6 0 12.6 22.7 29.8 77.5 62.0 210.0
08/05 07:50 6.7 68 5.17 1.2 11 13 1025.5 0 12.5 22.8 29.9 77.6 61.9 209.3
08/05 07:40 6.2 69 5.08 0.9 13 15 1025.5 0 12.4 22.8 29.7 77.2 61.1 206.5
08/05 07:30 5.7 72 5.13 1.1 11 13 1025.4 0 12.5 23.0 30.1 78.2 62.1 210.1
08/05 07:20 5.2 75 5.17 1.1 9 11 1025.3 0 12.6 23.2 30.4 79.1 63.0 213.2
08/05 07:10 4.1 79 5.06 0.8 9 11 1025.3 0 12.4 23.3 30.4 79.0 62.5 211.1
08/05 07:00 3.9 79 4.99 0.6 11 13 1025.2 0 12.3 23.2 30.2 78.4 61.7 208.4
08/05 06:50 3.8 80 5.02 0.7 13 13 1025 0 12.3 23.3 30.3 78.9 62.2 210.0
08/05 06:40 2.9 82 4.85 0.1 11 13 1025 0 12.0 23.2 30.0 77.9 60.6 204.4
08/05 06:30 3 80 4.76 -0.1 11 13 1025 0 11.8 23.1 29.6 76.9 59.4 200.0
08/05 06:20 3.2 81 4.89 0.3 11 11 1025 0 12.1 23.2 30.0 78.1 60.9 205.5
08/05 06:10 3.4 80 4.89 0.3 13 13 1024.9 0 12.1 23.2 30.0 77.9 60.8 205.0
08/05 06:00 3.5 79 4.86 0.2 13 15 1024.8 0 12.0 23.1 29.8 77.4 60.3 203.3
08/05 05:50 3.7 78 4.86 0.2 13 13 1024.7 0 12.0 23.0 29.7 77.2 60.1 202.8
08/05 05:40 4.1 75 4.8 0.1 13 15 1024.6 0 11.8 22.8 29.3 76.2 59.0 199.0
08/05 05:30 4.5 74 4.87 0.3 13 15 1024.5 0 12.0 22.9 29.5 76.5 59.6 201.2
08/05 05:20 4.8 72 4.83 0.2 13 15 1024.5 0 11.9 22.7 29.2 75.8 58.9 198.6
08/05 05:10 4.8 73 4.9 0.4 15 17 1024.6 0 12.0 22.8 29.5 76.6 59.8 201.8
08/05 05:00 4.5 74 4.87 0.3 13 17 1024.6 0 12.0 22.9 29.5 76.5 59.6 201.2
08/05 04:50 4.6 73 4.83 0.2 13 15 1024.6 0 11.9 22.8 29.3 76.0 59.1 199.1
08/05 04:40 4.6 72 4.77 0 13 15 1024.7 0 11.8 22.7 29.0 75.4 58.3 196.4
08/05 04:30 4.8 70 4.7 -0.2 11 13 1024.7 0 11.6 22.5 28.7 74.5 57.2 192.7
08/05 04:20 5.2 68 4.69 -0.2 13 13 1024.7 0 11.6 22.4 28.5 74.0 56.8 191.3
08/05 04:10 5.2 69 4.75 0 13 15 1024.7 0 11.7 22.5 28.7 74.6 57.6 194.0
08/05 04:00 5.4 68 4.75 0 13 17 1024.6 0 11.7 22.4 28.7 74.4 57.4 193.5
08/05 03:50 5.5 67 4.71 -0.1 15 17 1024.6 0 11.6 22.4 28.5 73.9 56.8 191.5
08/05 03:40 5.6 66 4.67 -0.2 15 17 1024.6 0 11.5 22.3 28.3 73.4 56.3 189.5
08/05 03:30 5.9 64 4.62 -0.4 15 19 1024.8 0 11.4 22.1 28.0 72.6 55.4 186.6
08/05 03:20 6.1 63 4.61 -0.4 17 17 1024.7 0 11.4 22.1 27.9 72.4 55.2 185.6
08/05 03:10 6.3 63 4.67 -0.2 20 22 1024.7 0 11.5 22.1 28.0 72.8 55.8 187.8
08/05 03:00 5.9 66 4.76 0 13 17 1024.8 0 11.7 22.3 28.5 74.1 57.2 192.8
08/05 02:50 4.7 71 4.73 -0.1 13 15 1024.8 0 11.7 22.6 28.8 74.9 57.7 194.4
08/05 02:40 4.2 68 4.39 -1.2 13 13 1024.9 0 11.0 22.2 27.7 71.8 53.7 180.2
08/05 02:30 5.9 63 4.55 -0.6 15 19 1024.9 0 11.2 22.0 27.7 71.9 54.6 183.5
08/05 02:20 6.4 62 4.62 -0.3 15 17 1024.9 0 11.4 22.0 27.8 72.2 55.1 185.4
08/05 02:10 6.2 63 4.64 -0.3 17 17 1025 0 11.4 22.1 28.0 72.6 55.5 186.8
08/05 02:00 6.3 62 4.59 -0.4 15 19 1025 0 11.3 22.0 27.8 72.0 54.8 184.3
08/05 01:50 6.4 62 4.62 -0.3 15 17 1025 0 11.4 22.0 27.8 72.2 55.1 185.4
08/05 01:40 6.1 65 4.75 0 15 17 1025 0 11.7 22.3 28.4 73.8 56.9 191.9
08/05 01:30 5 69 4.69 -0.2 13 19 1025 0 11.6 22.5 28.6 74.2 57.0 191.9
08/05 01:20 4.4 72 4.71 -0.2 13 15 1025 0 11.6 22.6 28.9 75.0 57.7 194.2
08/05 01:10 3.7 73 4.55 -0.7 13 13 1025 0 11.3 22.6 28.5 74.0 56.1 188.6
08/05 01:00 3.6 73 4.52 -0.8 13 17 1025 0 11.3 22.5 28.4 73.8 55.8 187.5
08/05 00:50 3.6 72 4.46 -1 13 15 1025 0 11.1 22.4 28.2 73.1 55.0 184.8
08/05 00:40 3.6 72 4.46 -1 13 15 1025 0 11.1 22.4 28.2 73.1 55.0 184.8
08/05 00:20 4 70 4.45 -1 13 15 1025.1 0 11.1 22.3 28.0 72.7 54.6 183.4
08/05 00:10 4 70 4.45 -1 9 11 1025.2 0 11.1 22.3 28.0 72.7 54.6 183.4
08/05 00:00 4.5 68 4.47 -0.9 13 15 1025.1 0 11.1 22.2 27.9 72.4 54.5 183.2
07/05 23:50 4.6 68 4.5 -0.8 11 11 1025.2 0 11.2 22.3 28.0 72.6 54.8 184.3
07/05 23:40 4.7 68 4.53 -0.7 13 15 1025.2 0 11.2 22.3 28.1 72.9 55.2 185.4
07/05 23:30 4.2 69 4.45 -1 11 13 1025.2 0 11.1 22.3 27.9 72.5 54.5 183.0
07/05 23:20 4.4 69 4.51 -0.8 13 15 1025.2 0 11.2 22.3 28.1 72.9 55.1 185.2
07/05 23:10 3.9 69 4.36 -1.3 11 13 1025.2 0 10.9 22.2 27.7 71.8 53.5 179.6
07/05 23:00 3.7 69 4.3 -1.4 13 17 1025.4 0 10.8 22.2 27.5 71.4 52.9 177.4
07/05 22:50 4.1 67 4.29 -1.5 13 15 1025.4 0 10.7 22.1 27.4 70.9 52.5 176.0
07/05 22:40 4.3 65 4.22 -1.7 9 11 1025.5 0 10.6 21.9 27.0 70.0 51.5 172.5
07/05 22:30 5.1 63 4.31 -1.3 11 15 1025.4 0 10.8 21.9 27.1 70.3 52.1 174.7
07/05 22:20 5.2 62 4.27 -1.5 11 11 1025.4 0 10.7 21.8 26.9 69.8 51.5 172.7
07/05 22:10 5.2 63 4.34 -1.3 9 11 1025.4 0 10.8 21.9 27.2 70.5 52.4 175.8
07/05 22:00 5.3 62 4.3 -1.4 13 15 1025.3 0 10.7 21.8 27.0 70.0 51.8 173.8
07/05 21:50 5.4 61 4.26 -1.5 11 13 1025.3 0 10.6 21.7 26.8 69.5 51.3 171.9
07/05 21:40 5.7 61 4.34 -1.2 13 13 1025.2 0 10.8 21.8 27.0 70.0 52.1 174.7
07/05 21:30 5.9 59 4.26 -1.5 13 15 1025.3 0 10.6 21.6 26.7 69.0 50.9 170.8
07/05 21:20 6.2 57 4.19 -1.7 13 13 1025.3 0 10.5 21.4 26.3 68.1 49.9 167.1
07/05 21:10 6.5 56 4.2 -1.6 15 15 1025.2 0 10.5 21.4 26.2 67.9 49.8 166.9
07/05 21:00 6.6 56 4.23 -1.5 13 13 1025.2 0 10.5 21.4 26.3 68.1 50.1 168.0
07/05 20:50 6.9 53 4.08 -2 11 11 1025.1 0 10.2 21.1 25.7 66.4 48.1 160.9
07/05 20:40 7.7 51 4.14 -1.8 11 13 1025 0 10.3 21.0 25.6 66.3 48.3 161.9
07/05 20:30 8.4 49 4.16 -1.7 13 17 1024.9 0 10.3 20.9 25.5 65.9 48.2 161.3
07/05 20:20 9.2 46 4.11 -1.8 15 15 1024.9 0 10.2 20.6 25.0 64.8 47.1 157.6
07/05 20:10 9.1 46 4.08 -1.9 15 17 1024.7 0 10.1 20.6 25.0 64.6 46.8 156.6
07/05 20:00 9.2 46 4.11 -1.8 15 20 1024.7 0 10.2 20.6 25.0 64.8 47.1 157.6
07/05 19:50 9.1 46 4.08 -1.9 15 17 1024.6 0 10.1 20.6 25.0 64.6 46.8 156.6

Last Refresh: 08-May-2026 12:10:11

Bureau of Meteorology